Tokuyama21century — JK5158 — position and weather

sailwx.info

Track history (hours):
 
Tides and Currents Weather Stations Pressure Air Temp Water Temp Dewpoint Dewpoint Depression Visibility Wind Speed Wind Dir Waves Ship Positions

Tokuyama21century

Last reported at 2017-Sep-20 12:55 UTC. Time now 2017-Sep-22 08:14 UTC.
Position N 34°14' E 134°56'.

Length 75 m; draft 6 m.

Type: Cargo ship. MMSI: 431400048.

Date/timePositionNaut miles runAvg speedWind from/ knotsBaromVisibWave heightAir tempDewpointWater temp
2017-Sep-20 12:55N 34°14' E 134°56'6 9.8
2017-Sep-20 12:19N 34°20' E 134°59'410.4
2017-Sep-20 11:57N 34°23' E 135°02'511.5
2017-Sep-20 11:30N 34°25' E 135°08'611.5
2017-Sep-20 11:00N 34°28' E 135°14'611.7
2017-Sep-20 10:30N 34°30' E 135°20'2 3.9
2017-Sep-20 10:00N 34°28' E 135°22'0 0.0
2017-Sep-20 09:30N 34°28' E 135°22'0 0.0
2017-Sep-20 08:55N 34°28' E 135°22'0 0.0
2017-Sep-20 08:25N 34°28' E 135°22'0 0.0
2017-Sep-20 07:55N 34°28' E 135°22'1 2.1
2017-Sep-20 07:29N 34°29' E 135°22'510.8
2017-Sep-20 07:00N 34°31' E 135°16'611.8
2017-Sep-20 06:30N 34°34' E 135°09'714.0
2017-Sep-20 05:59N 34°37' E 135°01'11 0.5
2017-Sep-19 08:08N 34°34' E 134°48'311.9
2017-Sep-19 07:51N 34°35' E 134°52'412.3
2017-Sep-19 07:30N 34°37' E 134°57'5 9.7
2017-Sep-19 06:59N 34°36' E 135°03'510.6
2017-Sep-19 06:30N 34°36' E 135°09'510.9
2017-Sep-19 06:00N 34°37' E 135°16'510.7
2017-Sep-19 05:30N 34°39' E 135°22'4 7.6
2017-Sep-19 05:00N 34°39' E 135°27'0 0.0
2017-Sep-19 04:27N 34°39' E 135°27'0 0.0
2017-Sep-19 03:51N 34°39' E 135°27'0 0.0
2017-Sep-19 03:27N 34°39' E 135°27'0 0.0
2017-Sep-19 02:57N 34°39' E 135°27'0 0.0
2017-Sep-19 02:15N 34°39' E 135°27'0 0.0
2017-Sep-19 01:57N 34°39' E 135°27'0 0.0
2017-Sep-19 01:27N 34°39' E 135°27'0 0.0
2017-Sep-19 00:57N 34°39' E 135°27'0 0.0
2017-Sep-19 00:27N 34°39' E 135°27'0 0.0
2017-Sep-18 23:57N 34°39' E 135°27'0 0.0
2017-Sep-18 23:27N 34°39' E 135°27'0 0.0
2017-Sep-18 22:57N 34°39' E 135°27'1 2.2
2017-Sep-18 22:27N 34°39' E 135°25'3 7.9
2017-Sep-18 22:00N 34°37' E 135°22'0 0.3
2017-Sep-18 21:28N 34°37' E 135°22'0 0.0
2017-Sep-18 20:58N 34°37' E 135°22'0 0.0
2017-Sep-18 20:28N 34°37' E 135°22'0 0.0
2017-Sep-18 19:58N 34°37' E 135°22'0 0.0
2017-Sep-18 19:28N 34°37' E 135°22'0 0.3
2017-Sep-18 19:00N 34°37' E 135°21'5 9.1
2017-Sep-18 18:30N 34°36' E 135°16'510.7
2017-Sep-18 18:00N 34°35' E 135°09'612.3
2017-Sep-18 17:30N 34°36' E 135°02'612.3
2017-Sep-18 16:59N 34°35' E 134°55'  
2017-Sep-14 08:44N 34°37' E 134°53'312.9
2017-Sep-14 08:28N 34°38' E 134°57'612.5
2017-Sep-14 08:00N 34°36' E 135°04'611.7
2017-Sep-14 07:30N 34°35' E 135°11'611.7
2017-Sep-14 07:00N 34°32' E 135°17'5 9.3
2017-Sep-14 06:28N 34°28' E 135°22'0 0.1
2017-Sep-14 06:00N 34°28' E 135°22'0 0.0
2017-Sep-14 05:30N 34°28' E 135°22'0 0.0
2017-Sep-14 05:00N 34°28' E 135°22'0 0.0
2017-Sep-14 04:12N 34°28' E 135°22'0 0.0
2017-Sep-14 03:59N 34°28' E 135°22'3 5.6
2017-Sep-14 03:30N 34°31' E 135°20'510.8
2017-Sep-14 03:00N 34°33' E 135°14'611.3
2017-Sep-14 02:30N 34°35' E 135°07'610.9
2017-Sep-14 02:00N 34°37' E 135°01'25 1.1
2017-Sep-13 03:41N 34°12' E 134°56'212.4
2017-Sep-13 03:30N 34°11' E 134°59'611.5
2017-Sep-13 03:01N 34°10' E 135°06'510.6
2017-Sep-13 02:30N 34°09' E 135°12'0 0.2
2017-Sep-13 01:58N 34°09' E 135°12'0 0.0
2017-Sep-13 01:28N 34°09' E 135°12'0 0.0
2017-Sep-13 00:58N 34°09' E 135°12'0 0.0
2017-Sep-13 00:28N 34°09' E 135°12'0 0.0
2017-Sep-12 23:58N 34°09' E 135°12'0 0.0
2017-Sep-12 23:28N 34°09' E 135°12'0 0.0
2017-Sep-12 22:58N 34°09' E 135°12'0 0.6
2017-Sep-12 22:30N 34°09' E 135°11'2 3.7
2017-Sep-12 22:00N 34°09' E 135°09'0 0.0
2017-Sep-12 21:30N 34°09' E 135°09'0 0.0
2017-Sep-12 20:57N 34°09' E 135°09'0 0.0
2017-Sep-12 20:30N 34°09' E 135°09'0 0.0
2017-Sep-12 20:00N 34°09' E 135°09'0 0.0
2017-Sep-12 19:30N 34°09' E 135°09'0 0.0
2017-Sep-12 19:00N 34°09' E 135°09'0 0.0
2017-Sep-12 18:30N 34°09' E 135°09'0 0.0
2017-Sep-12 18:00N 34°09' E 135°09'0 0.0
2017-Sep-12 17:30N 34°09' E 135°09'0 0.0
2017-Sep-12 17:00N 34°09' E 135°09'0 0.0
2017-Sep-12 16:30N 34°09' E 135°09'0 0.0
2017-Sep-12 16:00N 34°09' E 135°09'0 0.0
2017-Sep-12 15:27N 34°09' E 135°09'0 0.0
2017-Sep-12 15:00N 34°09' E 135°09'0 0.0
2017-Sep-12 14:27N 34°09' E 135°09'0 0.0
2017-Sep-12 14:00N 34°09' E 135°09'0 0.1
2017-Sep-12 13:30N 34°09' E 135°09'2 3.6
2017-Sep-12 13:00N 34°11' E 135°08'611.3
2017-Sep-12 12:30N 34°15' E 135°03'710.7
2017-Sep-12 11:53N 34°21' E 135°06'512.0
2017-Sep-12 11:30N 34°25' E 135°09'612.3
2017-Sep-12 11:00N 34°30' E 135°13'612.0
2017-Sep-12 10:30N 34°34' E 135°18'611.7
2017-Sep-12 10:00N 34°38' E 135°23'3 5.6
2017-Sep-12 09:30N 34°39' E 135°27'0 0.0
2017-Sep-12 08:58N 34°39' E 135°27'0 0.0
2017-Sep-12 08:28N 34°39' E 135°27'0 0.0
2017-Sep-12 07:58N 34°39' E 135°27'0 0.0
2017-Sep-12 07:28N 34°39' E 135°27'0 0.0
2017-Sep-12 06:58N 34°39' E 135°27'0 0.0
2017-Sep-12 06:28N 34°39' E 135°27'0 0.0
2017-Sep-12 06:00N 34°39' E 135°27'3 6.9
2017-Sep-12 05:30N 34°38' E 135°23'510.4
2017-Sep-12 05:00N 34°36' E 135°17'611.1
2017-Sep-12 04:30N 34°35' E 135°10'510.8
2017-Sep-12 04:00N 34°36' E 135°04'  
Track history (hours):
 
Tides and Currents Weather Stations Pressure Air Temp Water Temp Dewpoint Dewpoint Depression Visibility Wind Speed Wind Dir Waves Ship Positions

Tokuyama21century

Last reported at 2017-Sep-20 12:55 UTC. Time now 2017-Sep-22 08:14 UTC.
Position N 34°14' E 134°56'.

Length 75 m; draft 6 m.

Type: Cargo ship. MMSI: 431400048.

Date/timePositionNaut miles runAvg speedWind from/ knotsBaromVisibWave heightAir tempDewpointWater temp
2017-Sep-20 12:55N 34°14' E 134°56'6 9.8
2017-Sep-20 12:19N 34°20' E 134°59'410.4
2017-Sep-20 11:57N 34°23' E 135°02'511.5
2017-Sep-20 11:30N 34°25' E 135°08'611.5
2017-Sep-20 11:00N 34°28' E 135°14'611.7
2017-Sep-20 10:30N 34°30' E 135°20'2 3.9
2017-Sep-20 10:00N 34°28' E 135°22'0 0.0
2017-Sep-20 09:30N 34°28' E 135°22'0 0.0
2017-Sep-20 08:55N 34°28' E 135°22'0 0.0
2017-Sep-20 08:25N 34°28' E 135°22'0 0.0
2017-Sep-20 07:55N 34°28' E 135°22'1 2.1
2017-Sep-20 07:29N 34°29' E 135°22'510.8
2017-Sep-20 07:00N 34°31' E 135°16'611.8
2017-Sep-20 06:30N 34°34' E 135°09'714.0
2017-Sep-20 05:59N 34°37' E 135°01'11 0.5
2017-Sep-19 08:08N 34°34' E 134°48'311.9
2017-Sep-19 07:51N 34°35' E 134°52'412.3
2017-Sep-19 07:30N 34°37' E 134°57'5 9.7
2017-Sep-19 06:59N 34°36' E 135°03'510.6
2017-Sep-19 06:30N 34°36' E 135°09'510.9
2017-Sep-19 06:00N 34°37' E 135°16'510.7
2017-Sep-19 05:30N 34°39' E 135°22'4 7.6
2017-Sep-19 05:00N 34°39' E 135°27'0 0.0
2017-Sep-19 04:27N 34°39' E 135°27'0 0.0
2017-Sep-19 03:51N 34°39' E 135°27'0 0.0
2017-Sep-19 03:27N 34°39' E 135°27'0 0.0
2017-Sep-19 02:57N 34°39' E 135°27'0 0.0
2017-Sep-19 02:15N 34°39' E 135°27'0 0.0
2017-Sep-19 01:57N 34°39' E 135°27'0 0.0
2017-Sep-19 01:27N 34°39' E 135°27'0 0.0
2017-Sep-19 00:57N 34°39' E 135°27'0 0.0
2017-Sep-19 00:27N 34°39' E 135°27'0 0.0
2017-Sep-18 23:57N 34°39' E 135°27'0 0.0
2017-Sep-18 23:27N 34°39' E 135°27'0 0.0
2017-Sep-18 22:57N 34°39' E 135°27'1 2.2
2017-Sep-18 22:27N 34°39' E 135°25'3 7.9
2017-Sep-18 22:00N 34°37' E 135°22'0 0.3
2017-Sep-18 21:28N 34°37' E 135°22'0 0.0
2017-Sep-18 20:58N 34°37' E 135°22'0 0.0
2017-Sep-18 20:28N 34°37' E 135°22'0 0.0
2017-Sep-18 19:58N 34°37' E 135°22'0 0.0
2017-Sep-18 19:28N 34°37' E 135°22'0 0.3
2017-Sep-18 19:00N 34°37' E 135°21'5 9.1
2017-Sep-18 18:30N 34°36' E 135°16'510.7
2017-Sep-18 18:00N 34°35' E 135°09'612.3
2017-Sep-18 17:30N 34°36' E 135°02'612.3
2017-Sep-18 16:59N 34°35' E 134°55'  
2017-Sep-14 08:44N 34°37' E 134°53'312.9
2017-Sep-14 08:28N 34°38' E 134°57'612.5
2017-Sep-14 08:00N 34°36' E 135°04'611.7
2017-Sep-14 07:30N 34°35' E 135°11'611.7
2017-Sep-14 07:00N 34°32' E 135°17'5 9.3
2017-Sep-14 06:28N 34°28' E 135°22'0 0.1
2017-Sep-14 06:00N 34°28' E 135°22'0 0.0
2017-Sep-14 05:30N 34°28' E 135°22'0 0.0
2017-Sep-14 05:00N 34°28' E 135°22'0 0.0
2017-Sep-14 04:12N 34°28' E 135°22'0 0.0
2017-Sep-14 03:59N 34°28' E 135°22'3 5.6
2017-Sep-14 03:30N 34°31' E 135°20'510.8
2017-Sep-14 03:00N 34°33' E 135°14'611.3
2017-Sep-14 02:30N 34°35' E 135°07'610.9
2017-Sep-14 02:00N 34°37' E 135°01'25 1.1
2017-Sep-13 03:41N 34°12' E 134°56'212.4
2017-Sep-13 03:30N 34°11' E 134°59'611.5
2017-Sep-13 03:01N 34°10' E 135°06'510.6
2017-Sep-13 02:30N 34°09' E 135°12'0 0.2
2017-Sep-13 01:58N 34°09' E 135°12'0 0.0
2017-Sep-13 01:28N 34°09' E 135°12'0 0.0
2017-Sep-13 00:58N 34°09' E 135°12'0 0.0
2017-Sep-13 00:28N 34°09' E 135°12'0 0.0
2017-Sep-12 23:58N 34°09' E 135°12'0 0.0
2017-Sep-12 23:28N 34°09' E 135°12'0 0.0
2017-Sep-12 22:58N 34°09' E 135°12'0 0.6
2017-Sep-12 22:30N 34°09' E 135°11'2 3.7
2017-Sep-12 22:00N 34°09' E 135°09'0 0.0
2017-Sep-12 21:30N 34°09' E 135°09'0 0.0
2017-Sep-12 20:57N 34°09' E 135°09'0 0.0
2017-Sep-12 20:30N 34°09' E 135°09'0 0.0
2017-Sep-12 20:00N 34°09' E 135°09'0 0.0
2017-Sep-12 19:30N 34°09' E 135°09'0 0.0
2017-Sep-12 19:00N 34°09' E 135°09'0 0.0
2017-Sep-12 18:30N 34°09' E 135°09'0 0.0
2017-Sep-12 18:00N 34°09' E 135°09'0 0.0
2017-Sep-12 17:30N 34°09' E 135°09'0 0.0
2017-Sep-12 17:00N 34°09' E 135°09'0 0.0
2017-Sep-12 16:30N 34°09' E 135°09'0 0.0
2017-Sep-12 16:00N 34°09' E 135°09'0 0.0
2017-Sep-12 15:27N 34°09' E 135°09'0 0.0
2017-Sep-12 15:00N 34°09' E 135°09'0 0.0
2017-Sep-12 14:27N 34°09' E 135°09'0 0.0
2017-Sep-12 14:00N 34°09' E 135°09'0 0.1
2017-Sep-12 13:30N 34°09' E 135°09'2 3.6
2017-Sep-12 13:00N 34°11' E 135°08'611.3
2017-Sep-12 12:30N 34°15' E 135°03'710.7
2017-Sep-12 11:53N 34°21' E 135°06'512.0
2017-Sep-12 11:30N 34°25' E 135°09'612.3
2017-Sep-12 11:00N 34°30' E 135°13'612.0
2017-Sep-12 10:30N 34°34' E 135°18'611.7
2017-Sep-12 10:00N 34°38' E 135°23'3 5.6
2017-Sep-12 09:30N 34°39' E 135°27'0 0.0
2017-Sep-12 08:58N 34°39' E 135°27'0 0.0
2017-Sep-12 08:28N 34°39' E 135°27'0 0.0
2017-Sep-12 07:58N 34°39' E 135°27'0 0.0
2017-Sep-12 07:28N 34°39' E 135°27'0 0.0
2017-Sep-12 06:58N 34°39' E 135°27'0 0.0
2017-Sep-12 06:28N 34°39' E 135°27'0 0.0
2017-Sep-12 06:00N 34°39' E 135°27'3 6.9
2017-Sep-12 05:30N 34°38' E 135°23'510.4
2017-Sep-12 05:00N 34°36' E 135°17'611.1
2017-Sep-12 04:30N 34°35' E 135°10'510.8
2017-Sep-12 04:00N 34°36' E 135°04'  

Dump ship's entire track history